Impacts TAF Board
For situational awareness. Not to be used for flight planning purposes.
IDs:

KMSP - Minneapolis-St Paul, MN, US

Issued at 0852 UTC 17 Feb 2019
Updated at 0919 UTC 17 Feb 2019
Potential Impact None Slight Moderate High
Time0912Z 17/10Z 17/11Z 17/12Z 17/13Z 17/14Z 17/15Z 17/16Z 17/17Z 17/18Z 17/19Z 17/20Z 17/21Z 17/22Z>>
Type OBS PRVL PRVL PRVL PRVL PRVL PRVL PRVL PRVL PRVL PRVL PRVL PRVL PRVL
VIS 10 >6 >6 >6 >6 2 2 2 2 2 2 2 2 5
CIG 28 100 100 100 100 25 25 25 25 25 25 25 25 25
Cover OVC OVC OVC OVC OVC OVC OVC OVC OVC OVC OVC OVC OVC OVC
FltCat MVFR VFR VFR VFR VFR IFR IFR IFR IFR IFR IFR IFR IFR MVFR
WX -- -- -- -- -- -SN BR -SN BR -SN BR -SN BR -SN BR -SN BR -SN BR -SN BR -SN BR
WDir 70 80 80 80 80 50 50 50 50 50 50 50 50 20
WSpd 8 8 8 8 8 11 11 11 11 11 11 11 11 10
WGst -- -- -- -- -- -- -- -- -- -- -- -- -- --
Raw TAF
KMSP 170852Z 1709/1812 08008KT P6SM OVC100
  FM171400 05011KT 2SM -SN BR OVC025
  FM172200 02010KT 5SM -SN BR OVC025
  FM180200 36007KT P6SM SCT025 OVC080


Raw METAR
KMSP 170912Z 07008KT 10SM BKN028 OVC130 M08/M12 A2999 RMK AO2 T10781122
KMSP 170853Z 08009KT 10SM CLR M08/M12 A3000 RMK AO2 SLP175 T10781122 58009
KMSP 170753Z 08007KT 10SM OVC170 M07/M12 A3002 RMK AO2 SLP181 T10721122
KMSP 170653Z 07006KT 10SM BKN110 OVC210 M07/M12 A3002 RMK AO2 SLP183 T10721122

METAR Board
Radar Display
Forecast Discussion
For situational awareness. Not to be used for flight planning purposes.